Aeroporto :
LOGIN :

Iscrizione | Disclaimer

   EN    FR    IT 

 










Sommario :    VFR   VFR Marginale   IFR   IFR Intensivo   IFR Molto Intensivo
Visibilità : 
Base nubi : 
>= 8 km
>= 3000ft
5 / 8 km
1000 / 3000 ft
1500m / 5 km
500 / 1000 ft
800 / 1500m
200 / 500 ft
< 800m
< 200 ft
Simboli :   Temporali  Nebbia  Neve Forte  Precipitazioni Forti  Vento > 20 kt
SIGMETs :   Varie  Temporali  Ghiacco  Turbolenza  Onda orograficha  Ceneri Vulcaniche






- Altitudine del aeroporto : 325 ft
- Codice IATA : BES


LFRB - Brest

ULTIMO METAR :
  • 280330Z AUTO 19009KT CAVOK 13/12 Q1020 TEMPO 4000 SHRA BKN030TCU

METARs OBSOLETI :
  • 280300Z AUTO 19008KT CAVOK 13/12 Q1020 TEMPO 4000 SHRA BKN030TCU
  • 280230Z AUTO 20008KT CAVOK 12/11 Q1020 TEMPO 4000 SHRA BKN030TCU
  • 280200Z AUTO 21007KT CAVOK 12/12 Q1020 TEMPO 4000 SHRA BKN030TCU
  • 280130Z AUTO 19007KT CAVOK 12/11 Q1021 TEMPO 4000 SHRA BKN030TCU
  • 280100Z AUTO 19008KT CAVOK 12/11 Q1021 NOSIG

TAF TAF LFRB
Valido dal 28 a 00 ore il 29 a 06 ore UTC


272300Z 2800/2906 21010KT CAVOK
PROB40
TEMPO 2803/2811 4000 SHRA BKN030TCU
BECMG 2809/2811 21015G25KT
TEMPO 2811/2821 4000 SHRA BKN020CB
PROB40
TEMPO 2815/2818 23020G40KT 2000 SHRA BKN008 BKN015CB
PROB30 2815/2818 TSRA
BECMG 2818/2821 28010KT
TEMPO 2821/2903 28015G25KT 4000 SHRA BKN020TCU
ATIS : +33 2 98 32 02 71



MetMap, La meteo Aeronautica in un colpo d'occhio ! - Copyright ORBIFLY Dicembre 2007 - Disclaimer

ORBIFLY MET'MAP TEAM :

Programmazione e sviluppo : Alexandra Zaïnal
Concezione : Baudouin d'Aumeries
Aiuto per la programmazione : Marc-Olivier Méhu
Supporto tecnico e logistico : Manuel Goepfert
Aiuto per la traduzione : Arnaldo La Scala

Contatto : metmap@orbifly.com




FONTI E CREDITI :

   NOAA